DAL782 KLAX-KATL
Flight info
| Callsign | DAL782 |
|---|---|
| Flight time | N/A |
| Altitude | 41000 |
| Route | DOTSS2 CLEEE PKE HIDAT KA27O NABOB J74 SJN J231 ACH TCC J78 IRW J14 LIT J66 BEATS RUSSA GLAVN2 |
| Aircraft | A359/H-SDE2E3GHIJ3J4J5LM1ORWXY/LB1D1 |
Departure
| Time | 2026-05-05 17:40 |
|---|---|
| Airport | Los Angeles International Airport (KLAX) |
Arrival
| Time | N/A |
|---|---|
| Airport | Hartsfield Jackson Atlanta International Airport (KATL) |
| Time | Latitude | Longitude | Altitude | Speed | Heading |
|---|---|---|---|---|---|
| 2026-05-05 17:05 | 33.94717 | -118.40487 | 101 ft | 0 kts | 132° |
| 2026-05-05 17:15 | 33.94718 | -118.40487 | 101 ft | 0 kts | 132° |
| 2026-05-05 17:28 | 33.94718 | -118.40488 | 101 ft | 0 kts | 132° |
| 2026-05-05 17:30 | 33.94726 | -118.40498 | 101 ft | 4 kts | 132° |
| 2026-05-05 17:30 | 33.94744 | -118.40522 | 102 ft | 4 kts | 130° |
| 2026-05-05 17:30 | 33.94761 | -118.40547 | 101 ft | 4 kts | 125° |
| 2026-05-05 17:31 | 33.94775 | -118.40573 | 101 ft | 4 kts | 112° |
| 2026-05-05 17:31 | 33.94781 | -118.40601 | 103 ft | 3 kts | 85° |
| 2026-05-05 17:31 | 33.94781 | -118.40605 | 103 ft | 0 kts | 84° |
| 2026-05-05 17:36 | 33.94782 | -118.40596 | 104 ft | 3 kts | 84° |
| 2026-05-05 17:36 | 33.94786 | -118.40549 | 103 ft | 8 kts | 83° |
| 2026-05-05 17:37 | 33.94794 | -118.40470 | 102 ft | 11 kts | 83° |
| 2026-05-05 17:37 | 33.94805 | -118.40363 | 104 ft | 14 kts | 79° |
| 2026-05-05 17:37 | 33.94825 | -118.40234 | 104 ft | 17 kts | 80° |
| 2026-05-05 17:37 | 33.94842 | -118.40100 | 103 ft | 13 kts | 66° |
| 2026-05-05 17:38 | 33.94878 | -118.40079 | 105 ft | 5 kts | 14° |
| 2026-05-05 17:38 | 33.94903 | -118.40057 | 105 ft | 5 kts | 48° |
| 2026-05-05 17:38 | 33.94918 | -118.40014 | 105 ft | 7 kts | 73° |
| 2026-05-05 17:38 | 33.94958 | -118.39930 | 108 ft | 13 kts | 38° |
| 2026-05-05 17:39 | 33.95021 | -118.39930 | 113 ft | 6 kts | 326° |
| 2026-05-05 17:39 | 33.95036 | -118.39987 | 114 ft | 9 kts | 270° |
| 2026-05-05 17:39 | 33.95032 | -118.40046 | 115 ft | 0 kts | 264° |
| 2026-05-05 17:40 | 33.94997 | -118.40394 | 116 ft | 80 kts | 262° |
| 2026-05-05 17:40 | 33.94900 | -118.41334 | 112 ft | 144 kts | 263° |
| 2026-05-05 17:40 | 33.94758 | -118.42664 | 519 ft | 167 kts | 262° |
| 2026-05-05 17:40 | 33.94608 | -118.44037 | 1489 ft | 164 kts | 263° |
| 2026-05-05 17:41 | 33.94472 | -118.45420 | 2322 ft | 169 kts | 263° |
| 2026-05-05 17:41 | 33.94330 | -118.46901 | 2796 ft | 191 kts | 264° |
| 2026-05-05 17:41 | 33.94238 | -118.48623 | 3104 ft | 221 kts | 268° |
| 2026-05-05 17:41 | 33.94202 | -118.50577 | 3553 ft | 243 kts | 269° |
| 2026-05-05 17:42 | 33.94080 | -118.52636 | 4298 ft | 251 kts | 259° |
| 2026-05-05 17:42 | 33.93296 | -118.54522 | 5127 ft | 258 kts | 231° |
| 2026-05-05 17:42 | 33.91825 | -118.55809 | 5971 ft | 268 kts | 205° |
| 2026-05-05 17:42 | 33.90044 | -118.56570 | 6805 ft | 276 kts | 195° |
| 2026-05-05 17:43 | 33.88140 | -118.56734 | 7700 ft | 281 kts | 176° |
| 2026-05-05 17:43 | 33.86169 | -118.56391 | 8681 ft | 285 kts | 171° |
| 2026-05-05 17:43 | 33.84220 | -118.55927 | 9670 ft | 288 kts | 170° |
| 2026-05-05 17:43 | 33.82234 | -118.55419 | 10470 ft | 297 kts | 170° |
| 2026-05-05 17:44 | 33.80129 | -118.54871 | 10853 ft | 321 kts | 169° |
| 2026-05-05 17:44 | 33.77873 | -118.54275 | 11326 ft | 339 kts | 169° |
| 2026-05-05 17:44 | 33.75571 | -118.53659 | 12098 ft | 347 kts | 169° |
| 2026-05-05 17:44 | 33.73205 | -118.52991 | 12900 ft | 353 kts | 166° |
| 2026-05-05 17:45 | 33.70942 | -118.51779 | 13751 ft | 361 kts | 147° |
| 2026-05-05 17:45 | 33.69157 | -118.49630 | 14498 ft | 370 kts | 124° |
| 2026-05-05 17:45 | 33.68054 | -118.46818 | 15259 ft | 375 kts | 111° |
| 2026-05-05 17:45 | 33.67192 | -118.43841 | 15997 ft | 380 kts | 110° |
| 2026-05-05 17:46 | 33.66338 | -118.40833 | 16741 ft | 384 kts | 110° |
| 2026-05-05 17:46 | 33.65458 | -118.37785 | 17491 ft | 388 kts | 110° |
| 2026-05-05 17:46 | 33.64654 | -118.34674 | 18225 ft | 394 kts | 103° |
| 2026-05-05 17:46 | 33.64401 | -118.31373 | 18914 ft | 399 kts | 91° |
| 2026-05-05 17:47 | 33.64405 | -118.28024 | 19630 ft | 403 kts | 90° |
| 2026-05-05 17:47 | 33.64430 | -118.24647 | 20319 ft | 407 kts | 90° |
| 2026-05-05 17:47 | 33.64448 | -118.21226 | 21007 ft | 412 kts | 90° |
| 2026-05-05 17:47 | 33.64458 | -118.17765 | 21696 ft | 416 kts | 90° |
| 2026-05-05 17:48 | 33.64462 | -118.14272 | 22393 ft | 419 kts | 90° |
| 2026-05-05 17:48 | 33.64464 | -118.10759 | 23077 ft | 423 kts | 90° |
| 2026-05-05 17:48 | 33.64463 | -118.07202 | 23703 ft | 428 kts | 91° |
| 2026-05-05 17:48 | 33.64460 | -118.03607 | 24268 ft | 433 kts | 91° |
| 2026-05-05 17:49 | 33.64456 | -117.99976 | 24858 ft | 436 kts | 91° |
| 2026-05-05 17:49 | 33.64451 | -117.96324 | 25411 ft | 441 kts | 91° |
| 2026-05-05 17:49 | 33.64445 | -117.92653 | 25923 ft | 445 kts | 91° |
| 2026-05-05 17:49 | 33.64437 | -117.88893 | 26457 ft | 450 kts | 91° |
| 2026-05-05 17:50 | 33.64428 | -117.85167 | 27017 ft | 453 kts | 91° |
| 2026-05-05 17:50 | 33.64441 | -117.81309 | 27532 ft | 458 kts | 90° |
| 2026-05-05 17:50 | 33.64797 | -117.77538 | 28007 ft | 464 kts | 79° |
| 2026-05-05 17:50 | 33.65491 | -117.73739 | 28481 ft | 470 kts | 78° |
| 2026-05-05 17:51 | 33.66244 | -117.69907 | 29012 ft | 473 kts | 77° |
| 2026-05-05 17:51 | 33.67002 | -117.66034 | 29491 ft | 478 kts | 78° |
| 2026-05-05 17:51 | 33.67767 | -117.62088 | 29970 ft | 483 kts | 78° |
| 2026-05-05 17:51 | 33.68531 | -117.58126 | 30366 ft | 488 kts | 78° |
| 2026-05-05 17:52 | 33.69286 | -117.54193 | 30738 ft | 492 kts | 78° |
| 2026-05-05 17:52 | 33.70055 | -117.50176 | 31071 ft | 497 kts | 78° |
| 2026-05-05 17:52 | 33.70842 | -117.46051 | 31410 ft | 502 kts | 78° |
| 2026-05-05 17:52 | 33.71615 | -117.41993 | 31721 ft | 506 kts | 78° |
| 2026-05-05 17:53 | 33.72410 | -117.37805 | 32054 ft | 510 kts | 78° |
| 2026-05-05 17:53 | 33.73191 | -117.33685 | 32366 ft | 514 kts | 78° |
| 2026-05-05 17:53 | 33.73990 | -117.29464 | 32681 ft | 519 kts | 78° |
| 2026-05-05 17:53 | 33.74747 | -117.25217 | 32959 ft | 522 kts | 82° |
| 2026-05-05 17:54 | 33.75078 | -117.20871 | 33288 ft | 522 kts | 92° |
| 2026-05-05 17:54 | 33.75035 | -117.16488 | 33623 ft | 525 kts | 94° |
| 2026-05-05 17:54 | 33.74936 | -117.12079 | 33886 ft | 530 kts | 94° |
| 2026-05-05 17:54 | 33.74835 | -117.07646 | 34132 ft | 534 kts | 94° |
| 2026-05-05 17:55 | 33.74736 | -117.03167 | 34385 ft | 536 kts | 94° |
| 2026-05-05 17:55 | 33.74638 | -116.98674 | 34640 ft | 539 kts | 94° |
| 2026-05-05 17:55 | 33.74539 | -116.94178 | 34948 ft | 539 kts | 94° |
| 2026-05-05 17:55 | 33.74439 | -116.89665 | 35293 ft | 539 kts | 94° |
| 2026-05-05 17:56 | 33.74338 | -116.85170 | 35656 ft | 538 kts | 94° |
| 2026-05-05 17:56 | 33.74236 | -116.80668 | 35993 ft | 538 kts | 94° |
| 2026-05-05 17:56 | 33.74133 | -116.76181 | 36305 ft | 538 kts | 94° |
| 2026-05-05 17:56 | 33.74027 | -116.71677 | 36565 ft | 539 kts | 94° |
| 2026-05-05 17:57 | 33.73920 | -116.67185 | 36913 ft | 539 kts | 94° |
| 2026-05-05 17:57 | 33.73811 | -116.62684 | 37301 ft | 537 kts | 94° |
| 2026-05-05 17:57 | 33.73702 | -116.58195 | 37740 ft | 536 kts | 94° |
| 2026-05-05 17:57 | 33.73590 | -116.53710 | 37997 ft | 538 kts | 94° |
| 2026-05-05 17:58 | 33.73476 | -116.49197 | 38301 ft | 538 kts | 94° |
| 2026-05-05 17:58 | 33.73362 | -116.44735 | 38615 ft | 537 kts | 94° |
| 2026-05-05 17:58 | 33.73245 | -116.40234 | 38837 ft | 537 kts | 94° |
| 2026-05-05 17:58 | 33.73127 | -116.35753 | 39028 ft | 537 kts | 94° |
| 2026-05-05 17:59 | 33.73007 | -116.31271 | 39237 ft | 537 kts | 94° |
| 2026-05-05 17:59 | 33.72886 | -116.26784 | 39459 ft | 536 kts | 94° |
| 2026-05-05 17:59 | 33.72763 | -116.22315 | 39645 ft | 536 kts | 94° |
| 2026-05-05 17:59 | 33.72639 | -116.17828 | 39833 ft | 537 kts | 94° |
| 2026-05-05 18:00 | 33.72514 | -116.13405 | 40054 ft | 536 kts | 94° |
| 2026-05-05 18:00 | 33.72553 | -116.08924 | 40229 ft | 538 kts | 87° |
| 2026-05-05 18:00 | 33.73177 | -116.04486 | 40394 ft | 541 kts | 75° |
| 2026-05-05 18:00 | 33.74233 | -116.00145 | 40576 ft | 541 kts | 73° |
| 2026-05-05 18:01 | 33.75402 | -115.95851 | 40797 ft | 541 kts | 72° |
| 2026-05-05 18:01 | 33.76620 | -115.91565 | 40926 ft | 542 kts | 71° |
| 2026-05-05 18:01 | 33.77852 | -115.87273 | 40936 ft | 546 kts | 71° |
| 2026-05-05 18:02 | 33.80310 | -115.78603 | 40924 ft | 548 kts | 72° |
| 2026-05-05 18:02 | 33.82724 | -115.69912 | 40923 ft | 547 kts | 72° |
| 2026-05-05 18:03 | 33.85112 | -115.61219 | 40917 ft | 547 kts | 72° |
| 2026-05-05 18:03 | 33.87494 | -115.52513 | 40914 ft | 547 kts | 72° |
| 2026-05-05 18:04 | 33.89872 | -115.43802 | 40911 ft | 548 kts | 72° |
| 2026-05-05 18:04 | 33.92246 | -115.35084 | 40910 ft | 548 kts | 73° |
| 2026-05-05 18:05 | 33.94615 | -115.26357 | 40910 ft | 548 kts | 73° |
| 2026-05-05 18:05 | 33.96955 | -115.17707 | 40909 ft | 548 kts | 73° |
| 2026-05-05 18:06 | 33.99335 | -115.08885 | 40907 ft | 548 kts | 73° |
| 2026-05-05 18:06 | 34.01673 | -115.00188 | 40906 ft | 549 kts | 73° |
| 2026-05-05 18:07 | 34.04021 | -114.91424 | 40903 ft | 549 kts | 73° |
| 2026-05-05 18:07 | 34.06368 | -114.82639 | 40899 ft | 549 kts | 73° |
| 2026-05-05 18:08 | 34.08705 | -114.73867 | 40899 ft | 550 kts | 73° |
| 2026-05-05 18:08 | 34.11046 | -114.65087 | 40892 ft | 550 kts | 73° |
| 2026-05-05 18:09 | 34.13496 | -114.56332 | 40889 ft | 550 kts | 72° |
| 2026-05-05 18:09 | 34.15957 | -114.47643 | 40883 ft | 551 kts | 72° |
| 2026-05-05 18:10 | 34.18418 | -114.38872 | 40876 ft | 551 kts | 72° |
| 2026-05-05 18:10 | 34.20860 | -114.30096 | 40879 ft | 552 kts | 73° |